sensor_id;sensor_type;location;lat;lon;timestamp;P1;durP1;ratioP1;P2;durP2;ratioP2
16242;SDS011;11719;51.052;6.982;2023-06-24T00:02:13;2.87;;;1.70;;
16242;SDS011;11719;51.052;6.982;2023-06-24T00:04:39;2.13;;;1.77;;
16242;SDS011;11719;51.052;6.982;2023-06-24T00:07:05;2.73;;;1.97;;
16242;SDS011;11719;51.052;6.982;2023-06-24T00:09:31;3.30;;;2.00;;
16242;SDS011;11719;51.052;6.982;2023-06-24T00:11:57;2.30;;;1.83;;
16242;SDS011;11719;51.052;6.982;2023-06-24T00:14:25;2.00;;;1.30;;
16242;SDS011;11719;51.052;6.982;2023-06-24T00:16:52;1.30;;;1.20;;
16242;SDS011;11719;51.052;6.982;2023-06-24T00:19:19;1.80;;;1.60;;
16242;SDS011;11719;51.052;6.982;2023-06-24T00:21:47;2.43;;;1.80;;
16242;SDS011;11719;51.052;6.982;2023-06-24T00:24:16;2.53;;;1.70;;
16242;SDS011;11719;51.052;6.982;2023-06-24T00:26:51;2.17;;;1.50;;
16242;SDS011;11719;51.052;6.982;2023-06-24T00:29:18;2.37;;;1.77;;
16242;SDS011;11719;51.052;6.982;2023-06-24T00:34:19;2.27;;;2.00;;
16242;SDS011;11719;51.052;6.982;2023-06-24T00:36:45;1.93;;;1.47;;
16242;SDS011;11719;51.052;6.982;2023-06-24T00:39:15;2.27;;;1.60;;
16242;SDS011;11719;51.052;6.982;2023-06-24T00:41:41;1.67;;;1.37;;
16242;SDS011;11719;51.052;6.982;2023-06-24T00:44:07;2.10;;;1.90;;
16242;SDS011;11719;51.052;6.982;2023-06-24T00:46:33;2.10;;;1.90;;
16242;SDS011;11719;51.052;6.982;2023-06-24T00:49:00;2.00;;;1.80;;
16242;SDS011;11719;51.052;6.982;2023-06-24T00:51:28;2.20;;;1.60;;
16242;SDS011;11719;51.052;6.982;2023-06-24T00:53:58;2.67;;;1.93;;
16242;SDS011;11719;51.052;6.982;2023-06-24T00:56:26;4.40;;;2.60;;
16242;SDS011;11719;51.052;6.982;2023-06-24T00:59:00;1.93;;;1.77;;
16242;SDS011;11719;51.052;6.982;2023-06-24T01:01:30;1.97;;;1.77;;
16242;SDS011;11719;51.052;6.982;2023-06-24T01:04:00;2.93;;;2.07;;
16242;SDS011;11719;51.052;6.982;2023-06-24T01:06:28;1.67;;;1.47;;
16242;SDS011;11719;51.052;6.982;2023-06-24T01:08:55;1.90;;;1.70;;
16242;SDS011;11719;51.052;6.982;2023-06-24T01:11:25;2.97;;;1.87;;
16242;SDS011;11719;51.052;6.982;2023-06-24T01:13:52;2.83;;;2.10;;
16242;SDS011;11719;51.052;6.982;2023-06-24T01:16:22;2.03;;;1.83;;
16242;SDS011;11719;51.052;6.982;2023-06-24T01:19:24;2.40;;;1.70;;
16242;SDS011;11719;51.052;6.982;2023-06-24T01:25:43;1.93;;;1.67;;
16242;SDS011;11719;51.052;6.982;2023-06-24T01:34:12;2.60;;;1.83;;
16242;SDS011;11719;51.052;6.982;2023-06-24T01:39:37;2.40;;;1.90;;
16242;SDS011;11719;51.052;6.982;2023-06-24T01:42:18;3.50;;;2.13;;
16242;SDS011;11719;51.052;6.982;2023-06-24T01:44:47;3.37;;;1.90;;
16242;SDS011;11719;51.052;6.982;2023-06-24T01:47:15;3.83;;;2.53;;
16242;SDS011;11719;51.052;6.982;2023-06-24T01:49:48;4.03;;;2.30;;
16242;SDS011;11719;51.052;6.982;2023-06-24T01:52:17;2.73;;;1.90;;
16242;SDS011;11719;51.052;6.982;2023-06-24T01:54:46;1.97;;;1.63;;
16242;SDS011;11719;51.052;6.982;2023-06-24T01:57:13;3.70;;;2.10;;
16242;SDS011;11719;51.052;6.982;2023-06-24T01:59:42;3.10;;;2.00;;
16242;SDS011;11719;51.052;6.982;2023-06-24T02:02:10;2.37;;;1.60;;
16242;SDS011;11719;51.052;6.982;2023-06-24T02:04:37;2.47;;;1.90;;
16242;SDS011;11719;51.052;6.982;2023-06-24T02:07:05;2.53;;;2.13;;
16242;SDS011;11719;51.052;6.982;2023-06-24T02:09:33;2.37;;;1.70;;
16242;SDS011;11719;51.052;6.982;2023-06-24T02:12:01;2.83;;;2.00;;
16242;SDS011;11719;51.052;6.982;2023-06-24T02:14:29;3.70;;;1.80;;
16242;SDS011;11719;51.052;6.982;2023-06-24T02:16:56;3.10;;;1.90;;
16242;SDS011;11719;51.052;6.982;2023-06-24T02:19:25;1.80;;;1.50;;
16242;SDS011;11719;51.052;6.982;2023-06-24T02:21:55;2.47;;;1.53;;
16242;SDS011;11719;51.052;6.982;2023-06-24T02:24:24;2.17;;;1.87;;
16242;SDS011;11719;51.052;6.982;2023-06-24T02:26:53;2.70;;;1.83;;
16242;SDS011;11719;51.052;6.982;2023-06-24T02:29:19;2.93;;;1.83;;
16242;SDS011;11719;51.052;6.982;2023-06-24T02:31:47;2.40;;;1.53;;
16242;SDS011;11719;51.052;6.982;2023-06-24T02:34:13;2.67;;;2.03;;
16242;SDS011;11719;51.052;6.982;2023-06-24T02:36:40;2.13;;;1.90;;
16242;SDS011;11719;51.052;6.982;2023-06-24T02:39:06;1.87;;;1.57;;
16242;SDS011;11719;51.052;6.982;2023-06-24T02:41:32;3.20;;;1.80;;
16242;SDS011;11719;51.052;6.982;2023-06-24T02:43:57;2.57;;;2.00;;
16242;SDS011;11719;51.052;6.982;2023-06-24T02:46:23;2.13;;;1.70;;
16242;SDS011;11719;51.052;6.982;2023-06-24T02:48:50;2.60;;;1.83;;
16242;SDS011;11719;51.052;6.982;2023-06-24T02:51:17;2.40;;;1.90;;
16242;SDS011;11719;51.052;6.982;2023-06-24T02:53:45;2.30;;;2.00;;
16242;SDS011;11719;51.052;6.982;2023-06-24T02:56:11;1.93;;;1.50;;
16242;SDS011;11719;51.052;6.982;2023-06-24T02:58:38;2.23;;;1.60;;
16242;SDS011;11719;51.052;6.982;2023-06-24T03:01:05;2.33;;;1.80;;
16242;SDS011;11719;51.052;6.982;2023-06-24T03:03:34;2.53;;;1.77;;
16242;SDS011;11719;51.052;6.982;2023-06-24T03:06:00;2.10;;;1.87;;
16242;SDS011;11719;51.052;6.982;2023-06-24T03:08:27;1.90;;;1.53;;
16242;SDS011;11719;51.052;6.982;2023-06-24T03:10:54;2.47;;;2.00;;
16242;SDS011;11719;51.052;6.982;2023-06-24T03:13:21;1.97;;;1.73;;
16242;SDS011;11719;51.052;6.982;2023-06-24T03:15:48;2.77;;;1.90;;
16242;SDS011;11719;51.052;6.982;2023-06-24T03:18:15;2.60;;;1.87;;
16242;SDS011;11719;51.052;6.982;2023-06-24T03:20:42;3.33;;;2.47;;
16242;SDS011;11719;51.052;6.982;2023-06-24T03:23:08;2.63;;;2.17;;
16242;SDS011;11719;51.052;6.982;2023-06-24T03:25:34;2.03;;;1.83;;
16242;SDS011;11719;51.052;6.982;2023-06-24T03:28:00;2.90;;;2.20;;
16242;SDS011;11719;51.052;6.982;2023-06-24T03:30:28;3.40;;;1.70;;
16242;SDS011;11719;51.052;6.982;2023-06-24T03:32:55;2.07;;;1.80;;
16242;SDS011;11719;51.052;6.982;2023-06-24T03:35:22;2.27;;;1.60;;
16242;SDS011;11719;51.052;6.982;2023-06-24T03:37:48;1.90;;;1.50;;
16242;SDS011;11719;51.052;6.982;2023-06-24T03:40:16;2.07;;;1.50;;
16242;SDS011;11719;51.052;6.982;2023-06-24T03:42:42;2.43;;;1.90;;
16242;SDS011;11719;51.052;6.982;2023-06-24T03:45:08;1.73;;;1.60;;
16242;SDS011;11719;51.052;6.982;2023-06-24T03:47:34;2.87;;;2.10;;
16242;SDS011;11719;51.052;6.982;2023-06-24T03:50:00;2.53;;;2.03;;
16242;SDS011;11719;51.052;6.982;2023-06-24T03:52:26;2.70;;;1.60;;
16242;SDS011;11719;51.052;6.982;2023-06-24T03:54:51;2.70;;;1.83;;
16242;SDS011;11719;51.052;6.982;2023-06-24T03:57:18;2.97;;;1.80;;
16242;SDS011;11719;51.052;6.982;2023-06-24T03:59:44;4.63;;;2.90;;
16242;SDS011;11719;51.052;6.982;2023-06-24T04:02:10;3.87;;;3.03;;
16242;SDS011;11719;51.052;6.982;2023-06-24T04:04:35;4.63;;;3.07;;
16242;SDS011;11719;51.052;6.982;2023-06-24T04:07:01;3.70;;;2.60;;
16242;SDS011;11719;51.052;6.982;2023-06-24T04:09:29;4.07;;;3.03;;
16242;SDS011;11719;51.052;6.982;2023-06-24T04:11:55;2.30;;;2.10;;
16242;SDS011;11719;51.052;6.982;2023-06-24T04:14:20;2.80;;;1.77;;
16242;SDS011;11719;51.052;6.982;2023-06-24T04:16:46;4.00;;;2.80;;
16242;SDS011;11719;51.052;6.982;2023-06-24T04:19:12;3.77;;;2.53;;
16242;SDS011;11719;51.052;6.982;2023-06-24T04:21:38;2.53;;;1.80;;
16242;SDS011;11719;51.052;6.982;2023-06-24T04:24:03;2.83;;;1.90;;
16242;SDS011;11719;51.052;6.982;2023-06-24T04:26:30;4.07;;;3.10;;
16242;SDS011;11719;51.052;6.982;2023-06-24T04:28:55;2.03;;;1.43;;
16242;SDS011;11719;51.052;6.982;2023-06-24T04:31:21;4.03;;;2.83;;
16242;SDS011;11719;51.052;6.982;2023-06-24T04:33:47;2.20;;;1.70;;
16242;SDS011;11719;51.052;6.982;2023-06-24T04:36:13;5.87;;;3.63;;
16242;SDS011;11719;51.052;6.982;2023-06-24T04:38:39;1.60;;;1.50;;
16242;SDS011;11719;51.052;6.982;2023-06-24T04:41:04;3.20;;;2.03;;
16242;SDS011;11719;51.052;6.982;2023-06-24T04:43:30;1.83;;;1.63;;
16242;SDS011;11719;51.052;6.982;2023-06-24T04:45:56;1.83;;;1.53;;
16242;SDS011;11719;51.052;6.982;2023-06-24T04:48:24;2.10;;;1.53;;
16242;SDS011;11719;51.052;6.982;2023-06-24T04:50:51;1.80;;;1.40;;
16242;SDS011;11719;51.052;6.982;2023-06-24T04:53:19;2.23;;;1.80;;
16242;SDS011;11719;51.052;6.982;2023-06-24T04:55:46;1.90;;;1.60;;
16242;SDS011;11719;51.052;6.982;2023-06-24T04:58:12;2.17;;;1.87;;
16242;SDS011;11719;51.052;6.982;2023-06-24T05:00:38;3.80;;;2.80;;
16242;SDS011;11719;51.052;6.982;2023-06-24T05:03:04;2.53;;;1.77;;
16242;SDS011;11719;51.052;6.982;2023-06-24T05:05:29;2.17;;;1.67;;
16242;SDS011;11719;51.052;6.982;2023-06-24T05:07:56;2.23;;;1.90;;
16242;SDS011;11719;51.052;6.982;2023-06-24T05:10:21;2.30;;;2.10;;
16242;SDS011;11719;51.052;6.982;2023-06-24T05:12:47;6.73;;;2.87;;
16242;SDS011;11719;51.052;6.982;2023-06-24T05:15:13;3.30;;;2.23;;
16242;SDS011;11719;51.052;6.982;2023-06-24T05:17:39;4.83;;;3.67;;
16242;SDS011;11719;51.052;6.982;2023-06-24T05:20:05;4.70;;;3.63;;
16242;SDS011;11719;51.052;6.982;2023-06-24T05:22:31;2.33;;;1.83;;
16242;SDS011;11719;51.052;6.982;2023-06-24T05:24:57;2.23;;;2.03;;
16242;SDS011;11719;51.052;6.982;2023-06-24T05:27:23;3.30;;;1.87;;
16242;SDS011;11719;51.052;6.982;2023-06-24T05:29:49;2.37;;;1.53;;
16242;SDS011;11719;51.052;6.982;2023-06-24T05:32:14;3.10;;;2.03;;
16242;SDS011;11719;51.052;6.982;2023-06-24T05:34:42;4.43;;;3.40;;
16242;SDS011;11719;51.052;6.982;2023-06-24T05:37:08;5.10;;;3.07;;
16242;SDS011;11719;51.052;6.982;2023-06-24T05:39:34;2.63;;;2.30;;
16242;SDS011;11719;51.052;6.982;2023-06-24T05:42:00;4.20;;;3.10;;
16242;SDS011;11719;51.052;6.982;2023-06-24T05:44:26;4.17;;;2.73;;
16242;SDS011;11719;51.052;6.982;2023-06-24T05:46:51;6.00;;;3.87;;
16242;SDS011;11719;51.052;6.982;2023-06-24T05:49:17;3.17;;;2.13;;
16242;SDS011;11719;51.052;6.982;2023-06-24T05:51:43;4.63;;;3.40;;
16242;SDS011;11719;51.052;6.982;2023-06-24T05:54:09;2.73;;;1.80;;
16242;SDS011;11719;51.052;6.982;2023-06-24T05:56:34;2.67;;;1.97;;
16242;SDS011;11719;51.052;6.982;2023-06-24T05:59:01;3.87;;;2.20;;
16242;SDS011;11719;51.052;6.982;2023-06-24T06:01:27;2.20;;;1.93;;
16242;SDS011;11719;51.052;6.982;2023-06-24T06:03:53;2.23;;;1.80;;
16242;SDS011;11719;51.052;6.982;2023-06-24T06:06:18;2.87;;;1.77;;
16242;SDS011;11719;51.052;6.982;2023-06-24T06:08:44;3.17;;;2.37;;
16242;SDS011;11719;51.052;6.982;2023-06-24T06:11:10;2.30;;;1.90;;
16242;SDS011;11719;51.052;6.982;2023-06-24T06:13:36;7.03;;;3.13;;
16242;SDS011;11719;51.052;6.982;2023-06-24T06:16:01;2.07;;;1.67;;
16242;SDS011;11719;51.052;6.982;2023-06-24T06:18:27;3.60;;;2.43;;
16242;SDS011;11719;51.052;6.982;2023-06-24T06:20:53;7.10;;;4.00;;
16242;SDS011;11719;51.052;6.982;2023-06-24T06:23:19;2.63;;;2.03;;
16242;SDS011;11719;51.052;6.982;2023-06-24T06:25:45;2.60;;;2.07;;
16242;SDS011;11719;51.052;6.982;2023-06-24T06:28:11;2.73;;;2.00;;
16242;SDS011;11719;51.052;6.982;2023-06-24T06:30:38;5.10;;;3.77;;
16242;SDS011;11719;51.052;6.982;2023-06-24T06:33:04;5.77;;;4.13;;
16242;SDS011;11719;51.052;6.982;2023-06-24T06:35:30;2.60;;;2.27;;
16242;SDS011;11719;51.052;6.982;2023-06-24T06:37:57;8.20;;;4.33;;
16242;SDS011;11719;51.052;6.982;2023-06-24T06:40:23;2.73;;;2.43;;
16242;SDS011;11719;51.052;6.982;2023-06-24T06:42:49;8.40;;;4.50;;
16242;SDS011;11719;51.052;6.982;2023-06-24T06:45:15;6.77;;;4.33;;
16242;SDS011;11719;51.052;6.982;2023-06-24T06:47:41;8.40;;;5.50;;
16242;SDS011;11719;51.052;6.982;2023-06-24T06:50:07;10.37;;;5.97;;
16242;SDS011;11719;51.052;6.982;2023-06-24T06:52:33;3.37;;;2.70;;
16242;SDS011;11719;51.052;6.982;2023-06-24T06:54:59;7.67;;;4.97;;
16242;SDS011;11719;51.052;6.982;2023-06-24T06:57:25;8.87;;;5.67;;
16242;SDS011;11719;51.052;6.982;2023-06-24T06:59:51;7.40;;;5.83;;
16242;SDS011;11719;51.052;6.982;2023-06-24T07:02:18;12.70;;;5.47;;
16242;SDS011;11719;51.052;6.982;2023-06-24T07:04:44;8.53;;;5.67;;
16242;SDS011;11719;51.052;6.982;2023-06-24T07:07:10;10.77;;;5.60;;
16242;SDS011;11719;51.052;6.982;2023-06-24T07:09:37;10.00;;;6.03;;
16242;SDS011;11719;51.052;6.982;2023-06-24T07:12:02;7.80;;;5.63;;
16242;SDS011;11719;51.052;6.982;2023-06-24T07:14:29;3.80;;;2.70;;
16242;SDS011;11719;51.052;6.982;2023-06-24T07:16:54;7.40;;;5.03;;
16242;SDS011;11719;51.052;6.982;2023-06-24T07:19:20;5.63;;;4.63;;
16242;SDS011;11719;51.052;6.982;2023-06-24T07:21:46;9.10;;;5.50;;
16242;SDS011;11719;51.052;6.982;2023-06-24T07:24:12;7.07;;;4.93;;
16242;SDS011;11719;51.052;6.982;2023-06-24T07:26:38;5.07;;;3.30;;
16242;SDS011;11719;51.052;6.982;2023-06-24T07:29:05;6.47;;;4.43;;
16242;SDS011;11719;51.052;6.982;2023-06-24T07:31:32;6.53;;;5.23;;
16242;SDS011;11719;51.052;6.982;2023-06-24T07:33:59;4.07;;;3.33;;
16242;SDS011;11719;51.052;6.982;2023-06-24T07:36:25;6.47;;;5.07;;
16242;SDS011;11719;51.052;6.982;2023-06-24T07:38:50;8.00;;;5.47;;
16242;SDS011;11719;51.052;6.982;2023-06-24T07:41:16;8.37;;;5.47;;
16242;SDS011;11719;51.052;6.982;2023-06-24T07:43:42;5.43;;;4.13;;
16242;SDS011;11719;51.052;6.982;2023-06-24T07:46:08;3.47;;;2.80;;
16242;SDS011;11719;51.052;6.982;2023-06-24T07:48:33;6.10;;;3.90;;
16242;SDS011;11719;51.052;6.982;2023-06-24T07:50:59;3.23;;;2.27;;
16242;SDS011;11719;51.052;6.982;2023-06-24T07:53:25;8.07;;;5.17;;
16242;SDS011;11719;51.052;6.982;2023-06-24T07:55:51;8.03;;;5.43;;
16242;SDS011;11719;51.052;6.982;2023-06-24T07:58:17;8.13;;;5.53;;
16242;SDS011;11719;51.052;6.982;2023-06-24T08:00:44;12.00;;;5.20;;
16242;SDS011;11719;51.052;6.982;2023-06-24T08:03:11;9.03;;;5.20;;
16242;SDS011;11719;51.052;6.982;2023-06-24T08:05:38;8.77;;;4.90;;
16242;SDS011;11719;51.052;6.982;2023-06-24T08:08:04;7.63;;;4.80;;
16242;SDS011;11719;51.052;6.982;2023-06-24T08:10:30;5.97;;;3.87;;
16242;SDS011;11719;51.052;6.982;2023-06-24T08:12:57;8.37;;;5.40;;
16242;SDS011;11719;51.052;6.982;2023-06-24T08:15:22;7.50;;;4.67;;
16242;SDS011;11719;51.052;6.982;2023-06-24T08:17:54;9.57;;;4.80;;
16242;SDS011;11719;51.052;6.982;2023-06-24T08:20:20;8.30;;;5.73;;
16242;SDS011;11719;51.052;6.982;2023-06-24T08:22:47;8.03;;;5.40;;
16242;SDS011;11719;51.052;6.982;2023-06-24T08:25:13;5.47;;;3.73;;
16242;SDS011;11719;51.052;6.982;2023-06-24T08:27:39;9.67;;;5.40;;
16242;SDS011;11719;51.052;6.982;2023-06-24T08:30:24;9.63;;;5.27;;
16242;SDS011;11719;51.052;6.982;2023-06-24T08:32:50;7.07;;;5.47;;
16242;SDS011;11719;51.052;6.982;2023-06-24T08:35:16;9.30;;;6.07;;
16242;SDS011;11719;51.052;6.982;2023-06-24T08:37:41;5.63;;;3.93;;
16242;SDS011;11719;51.052;6.982;2023-06-24T08:40:07;10.17;;;6.40;;
16242;SDS011;11719;51.052;6.982;2023-06-24T08:42:33;9.60;;;5.27;;
16242;SDS011;11719;51.052;6.982;2023-06-24T08:44:59;12.17;;;7.03;;
16242;SDS011;11719;51.052;6.982;2023-06-24T08:47:25;4.50;;;3.10;;
16242;SDS011;11719;51.052;6.982;2023-06-24T08:49:55;3.67;;;2.60;;
16242;SDS011;11719;51.052;6.982;2023-06-24T08:52:30;7.63;;;4.77;;
16242;SDS011;11719;51.052;6.982;2023-06-24T08:54:58;7.97;;;5.90;;
16242;SDS011;11719;51.052;6.982;2023-06-24T08:57:26;7.17;;;3.70;;
16242;SDS011;11719;51.052;6.982;2023-06-24T08:59:52;9.63;;;5.60;;
16242;SDS011;11719;51.052;6.982;2023-06-24T09:02:18;10.53;;;5.93;;
16242;SDS011;11719;51.052;6.982;2023-06-24T09:04:44;8.38;;;4.93;;
16242;SDS011;11719;51.052;6.982;2023-06-24T09:07:10;8.35;;;5.82;;
16242;SDS011;11719;51.052;6.982;2023-06-24T09:09:45;8.33;;;5.80;;
16242;SDS011;11719;51.052;6.982;2023-06-24T09:12:13;8.47;;;4.20;;
16242;SDS011;11719;51.052;6.982;2023-06-24T09:14:40;11.83;;;5.37;;
16242;SDS011;11719;51.052;6.982;2023-06-24T09:17:06;13.48;;;5.03;;
16242;SDS011;11719;51.052;6.982;2023-06-24T09:19:34;8.45;;;4.57;;
16242;SDS011;11719;51.052;6.982;2023-06-24T09:22:07;8.75;;;5.10;;
16242;SDS011;11719;51.052;6.982;2023-06-24T09:24:41;8.25;;;4.95;;
16242;SDS011;11719;51.052;6.982;2023-06-24T09:27:07;9.98;;;4.55;;
16242;SDS011;11719;51.052;6.982;2023-06-24T09:29:34;6.90;;;4.28;;
16242;SDS011;11719;51.052;6.982;2023-06-24T09:32:03;7.47;;;4.38;;
16242;SDS011;11719;51.052;6.982;2023-06-24T09:34:30;7.63;;;4.10;;
16242;SDS011;11719;51.052;6.982;2023-06-24T09:36:57;5.57;;;3.15;;
16242;SDS011;11719;51.052;6.982;2023-06-24T09:39:24;6.70;;;4.03;;
16242;SDS011;11719;51.052;6.982;2023-06-24T09:41:57;8.52;;;4.57;;
16242;SDS011;11719;51.052;6.982;2023-06-24T09:44:25;4.40;;;3.15;;
16242;SDS011;11719;51.052;6.982;2023-06-24T09:46:53;6.57;;;4.25;;
16242;SDS011;11719;51.052;6.982;2023-06-24T09:49:20;5.65;;;3.92;;
16242;SDS011;11719;51.052;6.982;2023-06-24T09:51:47;9.80;;;3.90;;
16242;SDS011;11719;51.052;6.982;2023-06-24T09:54:15;6.57;;;3.20;;
16242;SDS011;11719;51.052;6.982;2023-06-24T09:56:50;3.92;;;2.47;;
16242;SDS011;11719;51.052;6.982;2023-06-24T09:59:19;4.72;;;2.67;;
16242;SDS011;11719;51.052;6.982;2023-06-24T10:01:47;6.13;;;3.50;;
16242;SDS011;11719;51.052;6.982;2023-06-24T10:04:15;5.38;;;3.10;;
16242;SDS011;11719;51.052;6.982;2023-06-24T10:06:43;7.40;;;3.00;;
16242;SDS011;11719;51.052;6.982;2023-06-24T10:09:10;5.82;;;3.10;;
16242;SDS011;11719;51.052;6.982;2023-06-24T10:11:38;7.82;;;4.00;;
16242;SDS011;11719;51.052;6.982;2023-06-24T10:14:04;3.50;;;2.58;;
16242;SDS011;11719;51.052;6.982;2023-06-24T10:16:31;4.57;;;2.40;;
16242;SDS011;11719;51.052;6.982;2023-06-24T10:19:00;3.13;;;2.05;;
16242;SDS011;11719;51.052;6.982;2023-06-24T10:24:30;3.85;;;2.55;;
16242;SDS011;11719;51.052;6.982;2023-06-24T10:27:05;4.85;;;2.28;;
16242;SDS011;11719;51.052;6.982;2023-06-24T10:29:34;7.45;;;2.90;;
16242;SDS011;11719;51.052;6.982;2023-06-24T10:32:02;3.47;;;2.10;;
16242;SDS011;11719;51.052;6.982;2023-06-24T10:34:40;3.88;;;2.10;;
16242;SDS011;11719;51.052;6.982;2023-06-24T10:42:31;4.78;;;2.00;;
16242;SDS011;11719;51.052;6.982;2023-06-24T10:50:11;2.22;;;1.92;;
16242;SDS011;11719;51.052;6.982;2023-06-24T10:52:43;2.95;;;1.75;;
16242;SDS011;11719;51.052;6.982;2023-06-24T10:55:12;3.65;;;2.22;;
16242;SDS011;11719;51.052;6.982;2023-06-24T10:57:40;2.58;;;2.00;;
16242;SDS011;11719;51.052;6.982;2023-06-24T11:00:07;4.28;;;2.70;;
16242;SDS011;11719;51.052;6.982;2023-06-24T11:02:33;4.93;;;2.35;;
16242;SDS011;11719;51.052;6.982;2023-06-24T11:05:00;3.53;;;2.17;;
16242;SDS011;11719;51.052;6.982;2023-06-24T11:07:29;3.42;;;1.83;;
16242;SDS011;11719;51.052;6.982;2023-06-24T11:10:01;3.38;;;1.90;;
16242;SDS011;11719;51.052;6.982;2023-06-24T11:12:33;5.22;;;2.15;;
16242;SDS011;11719;51.052;6.982;2023-06-24T11:15:04;4.40;;;1.80;;
16242;SDS011;11719;51.052;6.982;2023-06-24T11:17:32;1.88;;;1.40;;
16242;SDS011;11719;51.052;6.982;2023-06-24T11:19:59;2.05;;;1.50;;
16242;SDS011;11719;51.052;6.982;2023-06-24T11:22:26;2.47;;;1.90;;
16242;SDS011;11719;51.052;6.982;2023-06-24T11:24:53;2.38;;;1.60;;
16242;SDS011;11719;51.052;6.982;2023-06-24T11:29:55;2.03;;;1.30;;
16242;SDS011;11719;51.052;6.982;2023-06-24T11:32:34;5.85;;;1.33;;
16242;SDS011;11719;51.052;6.982;2023-06-24T11:35:02;3.00;;;1.30;;
16242;SDS011;11719;51.052;6.982;2023-06-24T11:37:33;1.90;;;1.23;;
16242;SDS011;11719;51.052;6.982;2023-06-24T11:40:03;2.20;;;1.48;;
16242;SDS011;11719;51.052;6.982;2023-06-24T11:42:31;1.80;;;1.20;;
16242;SDS011;11719;51.052;6.982;2023-06-24T11:44:59;1.75;;;1.20;;
16242;SDS011;11719;51.052;6.982;2023-06-24T11:47:33;1.92;;;1.60;;
16242;SDS011;11719;51.052;6.982;2023-06-24T11:50:00;2.05;;;1.35;;
16242;SDS011;11719;51.052;6.982;2023-06-24T11:55:17;5.43;;;1.17;;
16242;SDS011;11719;51.052;6.982;2023-06-24T12:00:30;2.67;;;1.13;;
16242;SDS011;11719;51.052;6.982;2023-06-24T12:03:07;1.90;;;1.50;;
16242;SDS011;11719;51.052;6.982;2023-06-24T12:05:35;2.47;;;1.30;;
16242;SDS011;11719;51.052;6.982;2023-06-24T12:08:04;2.08;;;1.40;;
16242;SDS011;11719;51.052;6.982;2023-06-24T12:10:36;1.92;;;1.38;;
16242;SDS011;11719;51.052;6.982;2023-06-24T12:13:04;1.98;;;1.30;;
16242;SDS011;11719;51.052;6.982;2023-06-24T12:15:33;2.60;;;1.63;;
16242;SDS011;11719;51.052;6.982;2023-06-24T12:18:00;2.08;;;1.33;;
16242;SDS011;11719;51.052;6.982;2023-06-24T12:20:27;2.25;;;1.40;;
16242;SDS011;11719;51.052;6.982;2023-06-24T12:22:53;2.97;;;1.45;;
16242;SDS011;11719;51.052;6.982;2023-06-24T12:25:20;2.80;;;1.70;;
16242;SDS011;11719;51.052;6.982;2023-06-24T12:27:46;2.05;;;1.52;;
16242;SDS011;11719;51.052;6.982;2023-06-24T12:30:12;2.15;;;1.50;;
16242;SDS011;11719;51.052;6.982;2023-06-24T12:32:39;1.83;;;1.45;;
16242;SDS011;11719;51.052;6.982;2023-06-24T12:35:05;4.25;;;1.52;;
16242;SDS011;11719;51.052;6.982;2023-06-24T12:37:33;3.33;;;1.30;;
16242;SDS011;11719;51.052;6.982;2023-06-24T12:40:00;2.63;;;1.70;;
16242;SDS011;11719;51.052;6.982;2023-06-24T12:42:30;2.70;;;1.67;;
16242;SDS011;11719;51.052;6.982;2023-06-24T12:44:56;3.20;;;1.77;;
16242;SDS011;11719;51.052;6.982;2023-06-24T12:47:22;2.78;;;1.75;;
16242;SDS011;11719;51.052;6.982;2023-06-24T12:49:48;1.90;;;1.52;;
16242;SDS011;11719;51.052;6.982;2023-06-24T12:52:14;1.95;;;1.48;;
16242;SDS011;11719;51.052;6.982;2023-06-24T12:54:40;2.35;;;1.70;;
16242;SDS011;11719;51.052;6.982;2023-06-24T12:57:06;4.43;;;1.92;;
16242;SDS011;11719;51.052;6.982;2023-06-24T12:59:32;2.05;;;1.60;;
16242;SDS011;11719;51.052;6.982;2023-06-24T13:01:58;2.22;;;1.65;;
16242;SDS011;11719;51.052;6.982;2023-06-24T13:04:24;2.63;;;1.83;;
16242;SDS011;11719;51.052;6.982;2023-06-24T13:06:50;2.65;;;1.45;;
16242;SDS011;11719;51.052;6.982;2023-06-24T13:09:17;1.90;;;1.40;;
16242;SDS011;11719;51.052;6.982;2023-06-24T13:11:43;2.28;;;1.95;;
16242;SDS011;11719;51.052;6.982;2023-06-24T13:14:09;3.05;;;1.88;;
16242;SDS011;11719;51.052;6.982;2023-06-24T13:16:35;1.95;;;1.70;;
16242;SDS011;11719;51.052;6.982;2023-06-24T13:19:02;3.00;;;1.70;;
16242;SDS011;11719;51.052;6.982;2023-06-24T13:21:28;1.88;;;1.33;;
16242;SDS011;11719;51.052;6.982;2023-06-24T13:23:54;2.28;;;1.60;;
16242;SDS011;11719;51.052;6.982;2023-06-24T13:26:19;4.20;;;2.15;;
16242;SDS011;11719;51.052;6.982;2023-06-24T13:28:45;2.38;;;1.88;;
16242;SDS011;11719;51.052;6.982;2023-06-24T13:31:11;4.95;;;1.90;;
16242;SDS011;11719;51.052;6.982;2023-06-24T13:33:37;2.17;;;1.45;;
16242;SDS011;11719;51.052;6.982;2023-06-24T13:36:04;2.03;;;1.25;;
16242;SDS011;11719;51.052;6.982;2023-06-24T13:38:32;1.90;;;1.23;;
16242;SDS011;11719;51.052;6.982;2023-06-24T13:40:58;2.50;;;1.73;;
16242;SDS011;11719;51.052;6.982;2023-06-24T13:43:24;1.83;;;1.20;;
16242;SDS011;11719;51.052;6.982;2023-06-24T13:45:51;1.92;;;1.55;;
16242;SDS011;11719;51.052;6.982;2023-06-24T13:48:16;2.35;;;1.60;;
16242;SDS011;11719;51.052;6.982;2023-06-24T13:50:42;2.85;;;1.65;;
16242;SDS011;11719;51.052;6.982;2023-06-24T13:53:08;2.67;;;1.70;;
16242;SDS011;11719;51.052;6.982;2023-06-24T13:55:34;2.17;;;1.38;;
16242;SDS011;11719;51.052;6.982;2023-06-24T13:58:01;2.58;;;1.20;;
16242;SDS011;11719;51.052;6.982;2023-06-24T14:00:27;2.67;;;1.67;;
16242;SDS011;11719;51.052;6.982;2023-06-24T14:02:53;1.55;;;1.20;;
16242;SDS011;11719;51.052;6.982;2023-06-24T14:05:20;1.73;;;1.20;;
16242;SDS011;11719;51.052;6.982;2023-06-24T14:07:45;2.63;;;1.83;;
16242;SDS011;11719;51.052;6.982;2023-06-24T14:10:11;1.65;;;1.30;;
16242;SDS011;11719;51.052;6.982;2023-06-24T14:12:37;2.95;;;1.48;;
16242;SDS011;11719;51.052;6.982;2023-06-24T14:15:04;2.00;;;1.73;;
16242;SDS011;11719;51.052;6.982;2023-06-24T14:17:30;2.08;;;1.48;;
16242;SDS011;11719;51.052;6.982;2023-06-24T14:19:56;1.77;;;1.38;;
16242;SDS011;11719;51.052;6.982;2023-06-24T14:22:22;1.45;;;0.90;;
16242;SDS011;11719;51.052;6.982;2023-06-24T14:24:49;1.45;;;0.90;;
16242;SDS011;11719;51.052;6.982;2023-06-24T14:27:15;2.00;;;0.93;;
16242;SDS011;11719;51.052;6.982;2023-06-24T14:29:40;2.25;;;1.10;;
16242;SDS011;11719;51.052;6.982;2023-06-24T14:32:06;1.15;;;0.95;;
16242;SDS011;11719;51.052;6.982;2023-06-24T14:34:32;4.57;;;1.42;;
16242;SDS011;11719;51.052;6.982;2023-06-24T14:36:58;1.75;;;1.02;;
16242;SDS011;11719;51.052;6.982;2023-06-24T14:39:24;1.20;;;1.10;;
16242;SDS011;11719;51.052;6.982;2023-06-24T14:41:50;1.25;;;0.88;;
16242;SDS011;11719;51.052;6.982;2023-06-24T14:44:16;4.38;;;1.38;;
16242;SDS011;11719;51.052;6.982;2023-06-24T14:46:41;1.85;;;1.00;;
16242;SDS011;11719;51.052;6.982;2023-06-24T14:49:07;2.25;;;1.33;;
16242;SDS011;11719;51.052;6.982;2023-06-24T14:51:33;2.00;;;1.05;;
16242;SDS011;11719;51.052;6.982;2023-06-24T14:53:59;1.50;;;0.85;;
16242;SDS011;11719;51.052;6.982;2023-06-24T14:56:25;1.52;;;1.00;;
16242;SDS011;11719;51.052;6.982;2023-06-24T14:58:51;2.05;;;1.10;;
16242;SDS011;11719;51.052;6.982;2023-06-24T15:01:16;1.58;;;0.77;;
16242;SDS011;11719;51.052;6.982;2023-06-24T15:03:42;1.45;;;1.02;;
16242;SDS011;11719;51.052;6.982;2023-06-24T15:06:08;1.92;;;0.93;;
16242;SDS011;11719;51.052;6.982;2023-06-24T15:08:34;1.77;;;0.75;;
16242;SDS011;11719;51.052;6.982;2023-06-24T15:10:59;1.58;;;0.90;;
16242;SDS011;11719;51.052;6.982;2023-06-24T15:13:25;1.40;;;1.17;;
16242;SDS011;11719;51.052;6.982;2023-06-24T15:15:51;1.88;;;0.90;;
16242;SDS011;11719;51.052;6.982;2023-06-24T15:18:20;1.75;;;0.93;;
16242;SDS011;11719;51.052;6.982;2023-06-24T15:20:47;1.85;;;0.82;;
16242;SDS011;11719;51.052;6.982;2023-06-24T15:23:12;2.05;;;1.05;;
16242;SDS011;11719;51.052;6.982;2023-06-24T15:25:38;1.65;;;0.90;;